sensor_id;sensor_type;location;lat;lon;timestamp;pressure;altitude;pressure_sealevel;temperature;humidity
71491;BME280;59307;50.060;9.150;2022-08-18T00:01:19;98331.31;;;18.81;69.97
71491;BME280;59307;50.060;9.150;2022-08-18T00:03:46;98335.78;;;18.72;70.59
71491;BME280;59307;50.060;9.150;2022-08-18T00:06:11;98336.09;;;18.62;70.82
71491;BME280;59307;50.060;9.150;2022-08-18T00:08:37;98337.19;;;18.70;70.31
71491;BME280;59307;50.060;9.150;2022-08-18T00:11:02;98329.28;;;18.61;69.85
71491;BME280;59307;50.060;9.150;2022-08-18T00:13:28;98326.50;;;18.66;70.02
71491;BME280;59307;50.060;9.150;2022-08-18T00:15:53;98328.50;;;18.69;69.27
71491;BME280;59307;50.060;9.150;2022-08-18T00:18:19;98331.13;;;18.69;69.58
71491;BME280;59307;50.060;9.150;2022-08-18T00:20:44;98322.47;;;18.60;70.73
71491;BME280;59307;50.060;9.150;2022-08-18T00:23:09;98324.47;;;18.55;71.23
71491;BME280;59307;50.060;9.150;2022-08-18T00:25:35;98326.66;;;18.44;71.18
71491;BME280;59307;50.060;9.150;2022-08-18T00:28:00;98328.28;;;18.31;71.89
71491;BME280;59307;50.060;9.150;2022-08-18T00:30:25;98317.84;;;18.57;71.61
71491;BME280;59307;50.060;9.150;2022-08-18T00:32:55;98321.38;;;18.70;71.37
71491;BME280;59307;50.060;9.150;2022-08-18T00:35:22;98322.16;;;18.70;70.54
71491;BME280;59307;50.060;9.150;2022-08-18T00:37:51;98329.13;;;18.83;69.65
71491;BME280;59307;50.060;9.150;2022-08-18T00:40:20;98336.25;;;18.57;71.44
71491;BME280;59307;50.060;9.150;2022-08-18T00:42:49;98327.88;;;18.47;72.03
71491;BME280;59307;50.060;9.150;2022-08-18T00:45:20;98342.13;;;18.54;72.00
71491;BME280;59307;50.060;9.150;2022-08-18T00:47:47;98346.31;;;18.64;71.51
71491;BME280;59307;50.060;9.150;2022-08-18T00:50:27;98354.06;;;18.77;70.46
71491;BME280;59307;50.060;9.150;2022-08-18T00:52:59;98362.25;;;18.42;72.08
71491;BME280;59307;50.060;9.150;2022-08-18T00:55:26;98361.13;;;18.25;73.32
71491;BME280;59307;50.060;9.150;2022-08-18T00:57:58;98361.56;;;18.10;74.08
71491;BME280;59307;50.060;9.150;2022-08-18T01:00:27;98379.53;;;18.25;73.05
71491;BME280;59307;50.060;9.150;2022-08-18T01:02:55;98388.53;;;18.33;73.17
71491;BME280;59307;50.060;9.150;2022-08-18T01:05:50;98395.38;;;18.43;73.07
71491;BME280;59307;50.060;9.150;2022-08-18T01:08:14;98389.38;;;18.51;71.98
71491;BME280;59307;50.060;9.150;2022-08-18T01:10:41;98399.13;;;18.67;71.86
71491;BME280;59307;50.060;9.150;2022-08-18T01:13:07;98413.72;;;18.82;69.69
71491;BME280;59307;50.060;9.150;2022-08-18T01:15:33;98425.66;;;19.22;68.25
71491;BME280;59307;50.060;9.150;2022-08-18T01:18:02;98416.06;;;19.35;67.97
71491;BME280;59307;50.060;9.150;2022-08-18T01:21:07;98419.91;;;19.54;67.11
71491;BME280;59307;50.060;9.150;2022-08-18T01:23:54;98414.16;;;19.61;66.85
71491;BME280;59307;50.060;9.150;2022-08-18T01:26:23;98400.63;;;19.71;66.87
71491;BME280;59307;50.060;9.150;2022-08-18T01:28:49;98392.41;;;19.64;67.14
71491;BME280;59307;50.060;9.150;2022-08-18T01:33:57;98388.41;;;19.49;68.29
71491;BME280;59307;50.060;9.150;2022-08-18T01:36:23;98386.56;;;19.50;68.70
71491;BME280;59307;50.060;9.150;2022-08-18T01:38:51;98391.84;;;19.50;68.07
71491;BME280;59307;50.060;9.150;2022-08-18T01:41:18;98384.84;;;19.45;69.15
71491;BME280;59307;50.060;9.150;2022-08-18T01:43:45;98392.94;;;19.49;69.57
71491;BME280;59307;50.060;9.150;2022-08-18T01:46:11;98391.88;;;19.41;68.89
71491;BME280;59307;50.060;9.150;2022-08-18T01:48:37;98385.31;;;19.47;69.07
71491;BME280;59307;50.060;9.150;2022-08-18T01:51:06;98382.06;;;19.42;68.70
71491;BME280;59307;50.060;9.150;2022-08-18T01:53:32;98381.94;;;19.38;69.33
71491;BME280;59307;50.060;9.150;2022-08-18T01:55:58;98382.88;;;19.34;69.67
71491;BME280;59307;50.060;9.150;2022-08-18T01:58:23;98384.41;;;19.35;69.57
71491;BME280;59307;50.060;9.150;2022-08-18T02:00:53;98383.47;;;19.30;69.18
71491;BME280;59307;50.060;9.150;2022-08-18T02:03:23;98387.38;;;19.33;69.39
71491;BME280;59307;50.060;9.150;2022-08-18T02:05:54;98392.31;;;19.26;69.94
71491;BME280;59307;50.060;9.150;2022-08-18T02:08:20;98381.63;;;19.14;71.04
71491;BME280;59307;50.060;9.150;2022-08-18T02:10:46;98380.06;;;19.39;70.13
71491;BME280;59307;50.060;9.150;2022-08-18T02:13:11;98385.66;;;19.20;70.54
71491;BME280;59307;50.060;9.150;2022-08-18T02:15:37;98385.03;;;19.06;71.27
71491;BME280;59307;50.060;9.150;2022-08-18T02:18:02;98394.19;;;19.17;70.69
71491;BME280;59307;50.060;9.150;2022-08-18T02:20:28;98389.84;;;19.29;70.16
71491;BME280;59307;50.060;9.150;2022-08-18T02:22:53;98382.25;;;19.11;70.56
71491;BME280;59307;50.060;9.150;2022-08-18T02:25:19;98400.53;;;18.99;70.78
71491;BME280;59307;50.060;9.150;2022-08-18T02:27:45;98397.16;;;18.90;71.90
71491;BME280;59307;50.060;9.150;2022-08-18T02:30:13;98394.50;;;18.73;72.19
71491;BME280;59307;50.060;9.150;2022-08-18T02:32:40;98394.19;;;18.66;72.36
71491;BME280;59307;50.060;9.150;2022-08-18T02:35:08;98392.03;;;18.68;72.33
71491;BME280;59307;50.060;9.150;2022-08-18T02:37:35;98395.91;;;18.70;72.15
71491;BME280;59307;50.060;9.150;2022-08-18T02:40:00;98398.06;;;18.68;71.94
71491;BME280;59307;50.060;9.150;2022-08-18T02:42:27;98399.75;;;18.73;71.80
71491;BME280;59307;50.060;9.150;2022-08-18T02:44:52;98395.28;;;18.82;71.39
71491;BME280;59307;50.060;9.150;2022-08-18T02:47:19;98394.53;;;18.81;70.87
71491;BME280;59307;50.060;9.150;2022-08-18T02:49:45;98398.38;;;18.84;70.34
71491;BME280;59307;50.060;9.150;2022-08-18T02:52:10;98397.47;;;18.88;71.23
71491;BME280;59307;50.060;9.150;2022-08-18T02:54:36;98396.50;;;18.93;71.09
71491;BME280;59307;50.060;9.150;2022-08-18T02:57:06;98400.25;;;18.92;70.97
71491;BME280;59307;50.060;9.150;2022-08-18T02:59:32;98402.88;;;18.92;71.17
71491;BME280;59307;50.060;9.150;2022-08-18T03:01:57;98398.25;;;18.89;71.53
71491;BME280;59307;50.060;9.150;2022-08-18T03:04:27;98394.50;;;18.98;71.10
71491;BME280;59307;50.060;9.150;2022-08-18T03:06:53;98399.16;;;19.10;70.87
71491;BME280;59307;50.060;9.150;2022-08-18T03:09:20;98392.81;;;19.11;70.21
71491;BME280;59307;50.060;9.150;2022-08-18T03:11:46;98396.38;;;18.98;70.76
71491;BME280;59307;50.060;9.150;2022-08-18T03:14:13;98401.78;;;18.93;70.45
71491;BME280;59307;50.060;9.150;2022-08-18T03:16:40;98397.63;;;18.83;71.44
71491;BME280;59307;50.060;9.150;2022-08-18T03:19:06;98401.78;;;18.59;72.69
71491;BME280;59307;50.060;9.150;2022-08-18T03:21:33;98391.53;;;18.49;73.15
71491;BME280;59307;50.060;9.150;2022-08-18T03:24:01;98396.34;;;18.72;72.79
71491;BME280;59307;50.060;9.150;2022-08-18T03:26:28;98387.53;;;18.85;72.25
71491;BME280;59307;50.060;9.150;2022-08-18T03:28:54;98385.03;;;18.63;72.62
71491;BME280;59307;50.060;9.150;2022-08-18T03:31:21;98393.34;;;18.39;73.44
71491;BME280;59307;50.060;9.150;2022-08-18T03:33:48;98382.69;;;18.45;73.53
71491;BME280;59307;50.060;9.150;2022-08-18T03:36:20;98374.66;;;18.67;72.83
71491;BME280;59307;50.060;9.150;2022-08-18T03:38:47;98378.09;;;18.84;72.20
71491;BME280;59307;50.060;9.150;2022-08-18T03:41:15;98381.81;;;18.92;72.47
71491;BME280;59307;50.060;9.150;2022-08-18T03:43:41;98376.84;;;18.90;72.37
71491;BME280;59307;50.060;9.150;2022-08-18T03:46:09;98379.78;;;18.80;71.54
71491;BME280;59307;50.060;9.150;2022-08-18T03:48:36;98377.94;;;18.81;71.32
71491;BME280;59307;50.060;9.150;2022-08-18T03:51:06;98377.31;;;18.75;71.65
71491;BME280;59307;50.060;9.150;2022-08-18T03:53:32;98374.94;;;18.48;73.40
71491;BME280;59307;50.060;9.150;2022-08-18T03:55:59;98371.34;;;18.35;74.50
71491;BME280;59307;50.060;9.150;2022-08-18T03:58:25;98371.97;;;18.32;74.76
71491;BME280;59307;50.060;9.150;2022-08-18T04:00:50;98379.78;;;18.46;74.21
71491;BME280;59307;50.060;9.150;2022-08-18T04:03:15;98381.56;;;18.37;74.32
71491;BME280;59307;50.060;9.150;2022-08-18T04:05:41;98378.66;;;18.38;74.88
71491;BME280;59307;50.060;9.150;2022-08-18T04:08:06;98380.66;;;18.33;74.53
71491;BME280;59307;50.060;9.150;2022-08-18T04:10:33;98378.66;;;18.38;74.24
71491;BME280;59307;50.060;9.150;2022-08-18T04:12:59;98380.31;;;18.26;74.87
71491;BME280;59307;50.060;9.150;2022-08-18T04:15:25;98377.06;;;18.37;74.73
71491;BME280;59307;50.060;9.150;2022-08-18T04:17:50;98380.50;;;18.38;74.31
71491;BME280;59307;50.060;9.150;2022-08-18T04:20:15;98376.44;;;18.40;74.32
71491;BME280;59307;50.060;9.150;2022-08-18T04:22:41;98377.06;;;18.37;74.31
71491;BME280;59307;50.060;9.150;2022-08-18T04:25:07;98378.78;;;18.33;74.67
71491;BME280;59307;50.060;9.150;2022-08-18T04:27:34;98377.41;;;18.36;74.78
71491;BME280;59307;50.060;9.150;2022-08-18T04:29:59;98381.72;;;18.32;74.29
71491;BME280;59307;50.060;9.150;2022-08-18T04:32:25;98384.03;;;18.33;74.74
71491;BME280;59307;50.060;9.150;2022-08-18T04:34:50;98390.25;;;18.37;75.18
71491;BME280;59307;50.060;9.150;2022-08-18T04:37:16;98388.25;;;18.43;74.09
71491;BME280;59307;50.060;9.150;2022-08-18T04:39:42;98383.31;;;18.50;74.19
71491;BME280;59307;50.060;9.150;2022-08-18T04:42:08;98390.91;;;18.43;74.33
71491;BME280;59307;50.060;9.150;2022-08-18T04:44:34;98392.09;;;18.37;74.46
71491;BME280;59307;50.060;9.150;2022-08-18T04:47:03;98397.34;;;18.37;74.56
71491;BME280;59307;50.060;9.150;2022-08-18T04:49:29;98402.06;;;18.49;74.47
71491;BME280;59307;50.060;9.150;2022-08-18T04:51:56;98404.56;;;18.62;73.83
71491;BME280;59307;50.060;9.150;2022-08-18T04:54:41;98399.00;;;18.55;73.76
71491;BME280;59307;50.060;9.150;2022-08-18T04:57:12;98399.16;;;18.59;74.11
71491;BME280;59307;50.060;9.150;2022-08-18T04:59:44;98410.16;;;18.61;74.85
71491;BME280;59307;50.060;9.150;2022-08-18T05:02:10;98417.72;;;18.62;74.62
71491;BME280;59307;50.060;9.150;2022-08-18T05:04:38;98419.75;;;18.65;73.42
71491;BME280;59307;50.060;9.150;2022-08-18T05:07:07;98427.00;;;18.60;74.68
71491;BME280;59307;50.060;9.150;2022-08-18T05:09:32;98433.66;;;18.49;75.14
71491;BME280;59307;50.060;9.150;2022-08-18T05:11:58;98428.34;;;18.40;75.69
71491;BME280;59307;50.060;9.150;2022-08-18T05:14:23;98429.56;;;18.34;76.44
71491;BME280;59307;50.060;9.150;2022-08-18T05:16:49;98430.78;;;18.28;76.53
71491;BME280;59307;50.060;9.150;2022-08-18T05:19:18;98429.59;;;18.43;76.35
71491;BME280;59307;50.060;9.150;2022-08-18T05:21:46;98425.75;;;18.49;75.96
71491;BME280;59307;50.060;9.150;2022-08-18T05:24:11;98421.81;;;18.37;76.96
71491;BME280;59307;50.060;9.150;2022-08-18T05:26:37;98420.44;;;18.40;77.52
71491;BME280;59307;50.060;9.150;2022-08-18T05:29:02;98416.47;;;18.60;77.76
71491;BME280;59307;50.060;9.150;2022-08-18T05:31:28;98412.47;;;18.62;77.14
71491;BME280;59307;50.060;9.150;2022-08-18T05:33:55;98407.03;;;18.67;77.09
71491;BME280;59307;50.060;9.150;2022-08-18T05:39:02;98407.19;;;18.71;77.31
71491;BME280;59307;50.060;9.150;2022-08-18T05:41:34;98405.81;;;18.73;76.32
71491;BME280;59307;50.060;9.150;2022-08-18T05:44:00;98417.13;;;18.74;76.31
71491;BME280;59307;50.060;9.150;2022-08-18T05:46:45;98419.91;;;18.60;76.09
71491;BME280;59307;50.060;9.150;2022-08-18T05:49:13;98421.28;;;18.58;79.09
71491;BME280;59307;50.060;9.150;2022-08-18T05:51:42;98428.38;;;18.49;80.11
71491;BME280;59307;50.060;9.150;2022-08-18T05:54:10;98421.91;;;18.15;82.81
71491;BME280;59307;50.060;9.150;2022-08-18T05:56:57;98412.91;;;17.99;84.41
71491;BME280;59307;50.060;9.150;2022-08-18T05:59:31;98416.09;;;17.88;85.57
71491;BME280;59307;50.060;9.150;2022-08-18T06:04:49;98414.81;;;18.16;85.10
71491;BME280;59307;50.060;9.150;2022-08-18T06:07:30;98411.19;;;18.03;84.51
71491;BME280;59307;50.060;9.150;2022-08-18T06:09:56;98407.75;;;17.94;86.55
71491;BME280;59307;50.060;9.150;2022-08-18T06:12:35;98399.19;;;17.80;89.45
71491;BME280;59307;50.060;9.150;2022-08-18T06:15:25;98397.16;;;17.77;91.15
71491;BME280;59307;50.060;9.150;2022-08-18T06:18:07;98404.94;;;17.82;91.63
71491;BME280;59307;50.060;9.150;2022-08-18T06:20:51;98397.59;;;18.01;90.15
71491;BME280;59307;50.060;9.150;2022-08-18T06:26:12;98400.59;;;18.25;86.82
71491;BME280;59307;50.060;9.150;2022-08-18T06:28:57;98403.41;;;18.37;87.89
71491;BME280;59307;50.060;9.150;2022-08-18T06:31:55;98402.88;;;18.18;87.65
71491;BME280;59307;50.060;9.150;2022-08-18T06:35:04;98401.78;;;18.11;89.28
71491;BME280;59307;50.060;9.150;2022-08-18T06:38:51;98410.34;;;18.25;90.10
71491;BME280;59307;50.060;9.150;2022-08-18T06:41:20;98406.88;;;18.07;89.01
71491;BME280;59307;50.060;9.150;2022-08-18T06:43:59;98412.91;;;18.08;89.57
71491;BME280;59307;50.060;9.150;2022-08-18T06:46:51;98415.38;;;18.04;87.94
71491;BME280;59307;50.060;9.150;2022-08-18T06:49:31;98424.25;;;18.17;89.03
71491;BME280;59307;50.060;9.150;2022-08-18T06:52:20;98424.41;;;18.20;87.60
71491;BME280;59307;50.060;9.150;2022-08-18T06:54:46;98421.94;;;18.24;86.47
71491;BME280;59307;50.060;9.150;2022-08-18T06:57:26;98424.56;;;18.24;86.78
71491;BME280;59307;50.060;9.150;2022-08-18T07:02:51;98415.69;;;18.03;90.94
71491;BME280;59307;50.060;9.150;2022-08-18T07:05:57;98410.28;;;18.08;90.87
71491;BME280;59307;50.060;9.150;2022-08-18T07:08:16;98414.03;;;18.24;90.14
71491;BME280;59307;50.060;9.150;2022-08-18T07:10:45;98416.72;;;18.32;90.25
71491;BME280;59307;50.060;9.150;2022-08-18T07:15:36;98416.84;;;18.27;90.32
71491;BME280;59307;50.060;9.150;2022-08-18T07:18:07;98416.09;;;18.35;90.11
71491;BME280;59307;50.060;9.150;2022-08-18T07:20:58;98416.56;;;18.37;86.97
71491;BME280;59307;50.060;9.150;2022-08-18T07:26:10;98429.59;;;18.43;88.95
71491;BME280;59307;50.060;9.150;2022-08-18T07:28:48;98430.34;;;18.34;89.74
71491;BME280;59307;50.060;9.150;2022-08-18T07:31:35;98430.63;;;18.24;90.70
71491;BME280;59307;50.060;9.150;2022-08-18T07:37:11;98432.22;;;18.43;89.61
71491;BME280;59307;50.060;9.150;2022-08-18T07:39:45;98443.59;;;18.52;89.22
71491;BME280;59307;50.060;9.150;2022-08-18T07:45:03;98464.81;;;18.55;86.85
71491;BME280;59307;50.060;9.150;2022-08-18T07:47:44;98475.50;;;18.59;85.72
71491;BME280;59307;50.060;9.150;2022-08-18T07:50:13;98478.59;;;18.61;84.29
71491;BME280;59307;50.060;9.150;2022-08-18T07:53:18;98476.44;;;18.63;85.57
71491;BME280;59307;50.060;9.150;2022-08-18T07:55:57;98480.47;;;18.69;85.59
71491;BME280;59307;50.060;9.150;2022-08-18T07:58:47;98483.91;;;18.78;86.39
71491;BME280;59307;50.060;9.150;2022-08-18T08:01:43;98493.84;;;18.81;84.79
71491;BME280;59307;50.060;9.150;2022-08-18T08:04:45;98506.25;;;18.89;85.65
71491;BME280;59307;50.060;9.150;2022-08-18T08:07:28;98520.19;;;18.89;85.26
71491;BME280;59307;50.060;9.150;2022-08-18T08:10:03;98520.97;;;18.81;87.34
71491;BME280;59307;50.060;9.150;2022-08-18T08:13:05;98521.81;;;18.60;89.24
71491;BME280;59307;50.060;9.150;2022-08-18T08:21:04;98513.97;;;18.77;91.18
71491;BME280;59307;50.060;9.150;2022-08-18T08:29:48;98519.84;;;18.74;93.91
71491;BME280;59307;50.060;9.150;2022-08-18T08:32:36;98525.06;;;18.65;94.72
71491;BME280;59307;50.060;9.150;2022-08-18T08:35:11;98526.25;;;18.42;93.00
71491;BME280;59307;50.060;9.150;2022-08-18T08:37:57;98518.09;;;18.30;96.27
71491;BME280;59307;50.060;9.150;2022-08-18T08:40:36;98519.94;;;18.29;95.59
71491;BME280;59307;50.060;9.150;2022-08-18T08:43:15;98523.06;;;18.31;96.22
71491;BME280;59307;50.060;9.150;2022-08-18T08:45:53;98520.84;;;18.56;94.86
71491;BME280;59307;50.060;9.150;2022-08-18T08:48:26;98519.81;;;18.65;93.06
71491;BME280;59307;50.060;9.150;2022-08-18T08:51:08;98522.00;;;18.72;91.79
71491;BME280;59307;50.060;9.150;2022-08-18T08:53:46;98523.59;;;18.81;92.24
71491;BME280;59307;50.060;9.150;2022-08-18T08:56:16;98518.16;;;18.95;94.10
71491;BME280;59307;50.060;9.150;2022-08-18T08:59:17;98520.06;;;19.03;94.73
71491;BME280;59307;50.060;9.150;2022-08-18T09:10:27;98505.84;;;19.38;90.58
71491;BME280;59307;50.060;9.150;2022-08-18T09:18:50;98518.69;;;19.74;91.09
71491;BME280;59307;50.060;9.150;2022-08-18T09:23:47;98510.66;;;19.53;92.97
71491;BME280;59307;50.060;9.150;2022-08-18T09:31:38;98504.75;;;19.56;94.63
71491;BME280;59307;50.060;9.150;2022-08-18T09:34:22;98497.59;;;19.74;92.51
71491;BME280;59307;50.060;9.150;2022-08-18T09:39:32;98497.56;;;19.91;90.06
71491;BME280;59307;50.060;9.150;2022-08-18T09:42:27;98512.56;;;20.07;88.88
71491;BME280;59307;50.060;9.150;2022-08-18T09:45:02;98508.94;;;20.29;87.42
71491;BME280;59307;50.060;9.150;2022-08-18T09:50:35;98511.91;;;20.36;88.62
71491;BME280;59307;50.060;9.150;2022-08-18T09:53:35;98516.59;;;20.31;87.34
71491;BME280;59307;50.060;9.150;2022-08-18T09:56:02;98524.97;;;20.33;87.16
71491;BME280;59307;50.060;9.150;2022-08-18T10:06:39;98533.28;;;19.71;86.86
71491;BME280;59307;50.060;9.150;2022-08-18T10:09:15;98536.56;;;19.68;87.46
71491;BME280;59307;50.060;9.150;2022-08-18T10:14:57;98531.75;;;19.70;90.10
71491;BME280;59307;50.060;9.150;2022-08-18T10:17:47;98518.41;;;19.67;90.29
71491;BME280;59307;50.060;9.150;2022-08-18T10:23:03;98506.44;;;19.78;90.42
71491;BME280;59307;50.060;9.150;2022-08-18T10:27:56;98513.41;;;19.82;90.16
71491;BME280;59307;50.060;9.150;2022-08-18T10:32:53;98519.41;;;20.00;90.47
71491;BME280;59307;50.060;9.150;2022-08-18T10:38:01;98524.59;;;19.88;89.10
71491;BME280;59307;50.060;9.150;2022-08-18T10:40:31;98533.00;;;19.73;89.51
71491;BME280;59307;50.060;9.150;2022-08-18T10:43:09;98527.25;;;19.71;91.32
71491;BME280;59307;50.060;9.150;2022-08-18T10:45:51;98530.19;;;19.78;90.81
71491;BME280;59307;50.060;9.150;2022-08-18T10:48:28;98533.88;;;19.94;87.99
71491;BME280;59307;50.060;9.150;2022-08-18T10:51:15;98537.44;;;20.06;87.47
71491;BME280;59307;50.060;9.150;2022-08-18T10:53:57;98553.91;;;19.95;88.89
71491;BME280;59307;50.060;9.150;2022-08-18T10:56:40;98547.09;;;19.85;91.58
71491;BME280;59307;50.060;9.150;2022-08-18T11:06:52;98549.22;;;20.17;88.15
71491;BME280;59307;50.060;9.150;2022-08-18T11:09:25;98544.53;;;20.14;89.67
71491;BME280;59307;50.060;9.150;2022-08-18T11:11:52;98534.59;;;20.29;87.69
71491;BME280;59307;50.060;9.150;2022-08-18T11:19:27;98527.34;;;20.55;87.52
71491;BME280;59307;50.060;9.150;2022-08-18T11:21:53;98520.53;;;20.83;87.81
71491;BME280;59307;50.060;9.150;2022-08-18T11:24:23;98520.84;;;21.10;82.87
71491;BME280;59307;50.060;9.150;2022-08-18T11:34:35;98457.22;;;21.48;84.06
71491;BME280;59307;50.060;9.150;2022-08-18T11:37:05;98450.28;;;21.56;82.46
71491;BME280;59307;50.060;9.150;2022-08-18T11:39:31;98457.13;;;21.57;82.84
71491;BME280;59307;50.060;9.150;2022-08-18T11:41:57;98439.22;;;21.74;83.25
71491;BME280;59307;50.060;9.150;2022-08-18T11:44:28;98419.44;;;22.41;78.83
71491;BME280;59307;50.060;9.150;2022-08-18T11:47:08;98416.63;;;22.73;79.55
71491;BME280;59307;50.060;9.150;2022-08-18T11:49:35;98415.53;;;22.74;78.61
71491;BME280;59307;50.060;9.150;2022-08-18T11:52:14;98420.78;;;22.23;78.34
71491;BME280;59307;50.060;9.150;2022-08-18T11:54:46;98433.56;;;22.21;80.90
71491;BME280;59307;50.060;9.150;2022-08-18T12:00:38;98435.09;;;22.09;81.33
71491;BME280;59307;50.060;9.150;2022-08-18T12:03:08;98436.31;;;22.00;78.93
71491;BME280;59307;50.060;9.150;2022-08-18T12:06:08;98429.81;;;22.22;77.21
71491;BME280;59307;50.060;9.150;2022-08-18T12:08:35;98440.09;;;22.59;77.38
71491;BME280;59307;50.060;9.150;2022-08-18T12:11:15;98427.72;;;22.63;76.46
71491;BME280;59307;50.060;9.150;2022-08-18T12:13:46;98420.91;;;22.90;73.03
71491;BME280;59307;50.060;9.150;2022-08-18T12:16:29;98428.31;;;23.24;74.03
71491;BME280;59307;50.060;9.150;2022-08-18T12:18:56;98428.31;;;23.24;74.58
71491;BME280;59307;50.060;9.150;2022-08-18T12:21:22;98427.06;;;23.34;73.68
71491;BME280;59307;50.060;9.150;2022-08-18T12:23:47;98426.44;;;22.85;70.01
71491;BME280;59307;50.060;9.150;2022-08-18T12:26:13;98434.13;;;23.42;71.71
71491;BME280;59307;50.060;9.150;2022-08-18T12:28:39;98440.59;;;23.87;69.62
71491;BME280;59307;50.060;9.150;2022-08-18T12:31:05;98437.97;;;24.34;67.22
71491;BME280;59307;50.060;9.150;2022-08-18T12:33:31;98428.56;;;24.06;65.85
71491;BME280;59307;50.060;9.150;2022-08-18T12:35:56;98425.81;;;24.02;64.27
71491;BME280;59307;50.060;9.150;2022-08-18T12:38:22;98423.16;;;24.02;66.26
71491;BME280;59307;50.060;9.150;2022-08-18T12:40:47;98425.38;;;24.31;64.22
71491;BME280;59307;50.060;9.150;2022-08-18T12:43:13;98418.13;;;24.47;65.72
71491;BME280;59307;50.060;9.150;2022-08-18T12:45:39;98424.72;;;24.53;63.21
71491;BME280;59307;50.060;9.150;2022-08-18T12:48:05;98419.28;;;23.99;63.94
71491;BME280;59307;50.060;9.150;2022-08-18T12:50:31;98412.69;;;23.93;65.94
71491;BME280;59307;50.060;9.150;2022-08-18T12:52:56;98420.44;;;24.49;64.66
71491;BME280;59307;50.060;9.150;2022-08-18T12:55:22;98425.66;;;25.34;60.67
71491;BME280;59307;50.060;9.150;2022-08-18T12:57:47;98422.25;;;25.37;60.67
71491;BME280;59307;50.060;9.150;2022-08-18T13:00:13;98418.94;;;25.21;62.07
71491;BME280;59307;50.060;9.150;2022-08-18T13:02:39;98424.25;;;24.32;62.25
71491;BME280;59307;50.060;9.150;2022-08-18T13:05:05;98416.28;;;23.85;66.44
71491;BME280;59307;50.060;9.150;2022-08-18T13:07:30;98408.91;;;23.94;65.72
71491;BME280;59307;50.060;9.150;2022-08-18T13:09:56;98418.94;;;23.70;66.22
71491;BME280;59307;50.060;9.150;2022-08-18T13:12:22;98414.91;;;23.60;64.80
71491;BME280;59307;50.060;9.150;2022-08-18T13:14:50;98406.47;;;23.43;63.71
71491;BME280;59307;50.060;9.150;2022-08-18T13:17:15;98401.97;;;23.31;65.80
71491;BME280;59307;50.060;9.150;2022-08-18T13:19:41;98401.97;;;23.31;66.16
71491;BME280;59307;50.060;9.150;2022-08-18T13:22:06;98395.41;;;23.41;64.82
71491;BME280;59307;50.060;9.150;2022-08-18T13:24:31;98387.09;;;23.15;64.49
71491;BME280;59307;50.060;9.150;2022-08-18T13:26:57;98390.88;;;23.14;65.45
71491;BME280;59307;50.060;9.150;2022-08-18T13:29:22;98381.47;;;23.44;66.49
71491;BME280;59307;50.060;9.150;2022-08-18T13:31:48;98379.34;;;23.65;64.06
71491;BME280;59307;50.060;9.150;2022-08-18T13:34:15;98385.28;;;23.74;65.00
71491;BME280;59307;50.060;9.150;2022-08-18T13:36:40;98370.88;;;23.59;64.96
71491;BME280;59307;50.060;9.150;2022-08-18T13:39:20;98373.97;;;23.77;62.90
71491;BME280;59307;50.060;9.150;2022-08-18T13:41:47;98371.47;;;23.68;63.87
71491;BME280;59307;50.060;9.150;2022-08-18T13:44:15;98372.91;;;23.81;63.08
71491;BME280;59307;50.060;9.150;2022-08-18T13:46:43;98370.88;;;23.75;62.76
71491;BME280;59307;50.060;9.150;2022-08-18T13:49:13;98374.47;;;23.67;62.21
71491;BME280;59307;50.060;9.150;2022-08-18T13:51:40;98371.91;;;23.70;64.37
71491;BME280;59307;50.060;9.150;2022-08-18T13:54:08;98368.91;;;23.72;63.58
71491;BME280;59307;50.060;9.150;2022-08-18T13:56:34;98369.75;;;23.76;64.37
71491;BME280;59307;50.060;9.150;2022-08-18T13:58:59;98372.94;;;23.66;65.33
71491;BME280;59307;50.060;9.150;2022-08-18T14:01:25;98370.38;;;23.69;65.72
71491;BME280;59307;50.060;9.150;2022-08-18T14:03:50;98378.50;;;23.92;64.92
71491;BME280;59307;50.060;9.150;2022-08-18T14:06:16;98370.00;;;24.18;62.57
71491;BME280;59307;50.060;9.150;2022-08-18T14:08:44;98363.84;;;24.14;61.96
71491;BME280;59307;50.060;9.150;2022-08-18T14:11:09;98365.31;;;24.46;60.10
71491;BME280;59307;50.060;9.150;2022-08-18T14:13:35;98356.09;;;24.59;59.15
71491;BME280;59307;50.060;9.150;2022-08-18T14:16:00;98351.56;;;24.59;58.72
71491;BME280;59307;50.060;9.150;2022-08-18T14:18:26;98352.63;;;24.39;58.24
71491;BME280;59307;50.060;9.150;2022-08-18T14:20:53;98353.56;;;24.28;59.16
71491;BME280;59307;50.060;9.150;2022-08-18T14:23:36;98358.19;;;24.50;58.74
71491;BME280;59307;50.060;9.150;2022-08-18T14:26:20;98350.00;;;24.58;58.32
71491;BME280;59307;50.060;9.150;2022-08-18T14:29:04;98344.84;;;25.04;57.75
71491;BME280;59307;50.060;9.150;2022-08-18T14:31:31;98344.59;;;25.50;56.71
71491;BME280;59307;50.060;9.150;2022-08-18T14:33:56;98343.53;;;25.81;55.58
71491;BME280;59307;50.060;9.150;2022-08-18T14:36:22;98342.03;;;26.32;53.58
71491;BME280;59307;50.060;9.150;2022-08-18T14:38:49;98330.25;;;26.63;51.60
71491;BME280;59307;50.060;9.150;2022-08-18T14:41:15;98327.63;;;26.96;51.14
71491;BME280;59307;50.060;9.150;2022-08-18T14:43:40;98334.34;;;26.53;50.33
71491;BME280;59307;50.060;9.150;2022-08-18T14:46:09;98327.34;;;26.16;51.02
71491;BME280;59307;50.060;9.150;2022-08-18T14:48:35;98325.38;;;26.13;53.45
71491;BME280;59307;50.060;9.150;2022-08-18T14:51:01;98324.78;;;26.52;51.60
71491;BME280;59307;50.060;9.150;2022-08-18T14:53:30;98328.59;;;26.81;51.27
71491;BME280;59307;50.060;9.150;2022-08-18T14:55:56;98330.84;;;26.49;49.74
71491;BME280;59307;50.060;9.150;2022-08-18T14:58:24;98328.09;;;25.90;51.61
71491;BME280;59307;50.060;9.150;2022-08-18T15:01:00;98323.50;;;25.64;54.33
71491;BME280;59307;50.060;9.150;2022-08-18T15:03:28;98326.66;;;25.47;54.08
71491;BME280;59307;50.060;9.150;2022-08-18T15:05:54;98323.41;;;25.16;53.75
71491;BME280;59307;50.060;9.150;2022-08-18T15:08:20;98325.19;;;25.08;55.77
71491;BME280;59307;50.060;9.150;2022-08-18T15:10:46;98327.56;;;25.13;55.25